createdAt,value
2022-09-30T00:00:40.730Z,99837.72
2022-09-30T00:03:08.372Z,99830.38
2022-09-30T00:05:37.336Z,99832.09
2022-09-30T00:08:05.034Z,99835.53
2022-09-30T00:10:32.549Z,99836.63
2022-09-30T00:13:01.962Z,99843.22
2022-09-30T00:15:29.640Z,99841.00
2022-09-30T00:17:57.370Z,99832.38
2022-09-30T00:20:24.912Z,99844.41
2022-09-30T00:22:53.838Z,99846.44
2022-09-30T00:25:21.544Z,99849.72
2022-09-30T00:27:50.036Z,99847.81
2022-09-30T00:30:17.604Z,99845.47
2022-09-30T00:32:45.224Z,99852.78
2022-09-30T00:35:13.218Z,99853.97
2022-09-30T00:37:40.776Z,99858.59
2022-09-30T00:40:11.585Z,99857.34
2022-09-30T00:42:41.532Z,99854.97
2022-09-30T00:45:11.894Z,99864.06
2022-09-30T00:47:43.649Z,99859.06
2022-09-30T00:50:27.556Z,99859.44
2022-09-30T00:52:58.896Z,99869.31
2022-09-30T00:55:35.882Z,99862.84
2022-09-30T00:58:05.247Z,99864.88
2022-09-30T01:00:32.808Z,99865.56
2022-09-30T01:03:00.753Z,99863.91
2022-09-30T01:05:28.391Z,99882.34
2022-09-30T01:07:57.698Z,99874.59
2022-09-30T01:10:25.273Z,99880.75
2022-09-30T01:12:54.499Z,99880.13
2022-09-30T01:15:25.762Z,99869.44
2022-09-30T01:17:57.281Z,99872.28
2022-09-30T01:21:04.489Z,99879.00
2022-09-30T01:23:59.360Z,99880.66
2022-09-30T01:27:05.754Z,99877.25
2022-09-30T01:30:02.332Z,99885.03
2022-09-30T01:32:43.295Z,99882.78
2022-09-30T01:35:17.320Z,99895.94
2022-09-30T01:37:53.488Z,99897.63
2022-09-30T01:40:25.049Z,99890.53
2022-09-30T01:42:58.125Z,99889.94
2022-09-30T01:45:33.552Z,99895.94
2022-09-30T01:48:05.090Z,99894.75
2022-09-30T01:50:40.155Z,99890.84
2022-09-30T01:53:13.380Z,99902.94
2022-09-30T01:55:43.761Z,99901.25
2022-09-30T01:58:15.046Z,99903.56
2022-09-30T02:00:45.105Z,99913.59
2022-09-30T02:03:17.928Z,99911.19
2022-09-30T02:05:51.242Z,99907.53
2022-09-30T02:08:22.978Z,99905.38
2022-09-30T02:10:56.377Z,99913.53
2022-09-30T02:13:29.207Z,99917.19
2022-09-30T02:15:58.980Z,99918.78
2022-09-30T02:18:30.909Z,99907.63
2022-09-30T02:21:01.022Z,99915.22
2022-09-30T02:23:30.414Z,99918.38
2022-09-30T02:26:06.826Z,99915.38
2022-09-30T02:28:39.361Z,99918.63
2022-09-30T02:31:11.323Z,99923.16
2022-09-30T02:33:42.436Z,99925.50
2022-09-30T02:36:12.170Z,99919.44
2022-09-30T02:38:42.069Z,99923.16
2022-09-30T02:41:12.441Z,99921.75
2022-09-30T02:43:41.991Z,99918.66
2022-09-30T02:46:11.821Z,99924.28
2022-09-30T02:48:44.415Z,99924.06
2022-09-30T02:51:16.653Z,99938.22
2022-09-30T02:53:47.187Z,99927.78
2022-09-30T02:56:23.096Z,99936.81
2022-09-30T02:58:51.799Z,99936.22
2022-09-30T03:01:20.179Z,99934.50
2022-09-30T03:03:51.813Z,99930.38
2022-09-30T03:06:19.482Z,99926.84
2022-09-30T03:08:47.128Z,99927.78
2022-09-30T03:11:17.794Z,99936.94
2022-09-30T03:14:05.647Z,99931.38
2022-09-30T03:16:47.856Z,99933.84
2022-09-30T03:19:28.061Z,99946.84
2022-09-30T03:22:07.994Z,99951.28
2022-09-30T03:24:52.605Z,99948.16
2022-09-30T03:27:30.147Z,99946.00
2022-09-30T03:30:03.892Z,99954.88
2022-09-30T03:32:50.053Z,99963.72
2022-09-30T03:35:25.342Z,99958.28
2022-09-30T03:37:59.327Z,99964.41
2022-09-30T03:40:31.915Z,99968.19
2022-09-30T03:43:04.748Z,99966.19
2022-09-30T03:45:36.097Z,99974.41
2022-09-30T03:48:06.288Z,99977.47
2022-09-30T03:50:37.042Z,99979.72
2022-09-30T03:53:06.050Z,99982.75
2022-09-30T03:55:33.904Z,99991.75
2022-09-30T03:58:01.725Z,99988.34
2022-09-30T04:00:32.541Z,99996.69
2022-09-30T04:03:01.035Z,100002.47
2022-09-30T04:05:28.783Z,100006.47
2022-09-30T04:07:57.792Z,100001.19
2022-09-30T04:10:25.396Z,99996.03
2022-09-30T04:12:54.594Z,99992.00
2022-09-30T04:15:22.345Z,99996.94
2022-09-30T04:17:50.828Z,99998.84
2022-09-30T04:20:18.586Z,100003.88
2022-09-30T04:22:47.100Z,100005.06
2022-09-30T04:25:16.905Z,99997.47
2022-09-30T04:27:44.665Z,100008.06
2022-09-30T04:30:12.980Z,100011.50
2022-09-30T04:32:45.447Z,100029.72
2022-09-30T04:35:13.507Z,100025.97
2022-09-30T04:37:44.945Z,100021.78
2022-09-30T04:40:14.759Z,100031.78
2022-09-30T04:42:45.260Z,100030.25
2022-09-30T04:45:13.451Z,100041.28
2022-09-30T04:47:44.362Z,100046.41
2022-09-30T04:50:12.135Z,100050.94
2022-09-30T04:52:43.510Z,100049.69
2022-09-30T04:55:11.763Z,100053.44
2022-09-30T04:57:39.631Z,100046.84
2022-09-30T05:00:10.571Z,100057.75
2022-09-30T05:02:38.139Z,100050.38
2022-09-30T05:05:06.751Z,100059.88
2022-09-30T05:07:34.497Z,100053.44
2022-09-30T05:10:02.239Z,100063.59
2022-09-30T05:12:29.913Z,100067.69
2022-09-30T05:14:57.619Z,100072.06
2022-09-30T05:17:26.901Z,100071.22
2022-09-30T05:19:54.515Z,100067.34
2022-09-30T05:22:23.170Z,100074.66
2022-09-30T05:24:51.359Z,100070.97
2022-09-30T05:27:18.929Z,100070.81
2022-09-30T05:29:46.850Z,100069.09
2022-09-30T05:32:14.549Z,100068.69
2022-09-30T05:34:43.568Z,100079.19
2022-09-30T05:37:11.761Z,100078.94
2022-09-30T05:39:39.614Z,100080.78
2022-09-30T05:42:10.912Z,100090.47
2022-09-30T05:44:41.523Z,100098.78
2022-09-30T05:47:11.586Z,100090.72
2022-09-30T05:49:40.247Z,100094.50
2022-09-30T05:52:09.364Z,100098.53
2022-09-30T05:54:37.311Z,100100.88
2022-09-30T05:57:05.389Z,100113.78
2022-09-30T05:59:32.881Z,100108.53
2022-09-30T06:02:00.767Z,100109.59
2022-09-30T06:04:28.631Z,100111.63
2022-09-30T06:06:56.132Z,100106.13
2022-09-30T06:09:25.794Z,100110.41
2022-09-30T06:11:59.153Z,100106.78
2022-09-30T06:14:28.521Z,100097.94
2022-09-30T06:16:56.538Z,100100.31
2022-09-30T06:19:24.258Z,100103.91
2022-09-30T06:21:52.013Z,100112.97
2022-09-30T06:24:19.771Z,100110.16
2022-09-30T06:26:48.872Z,100102.19
2022-09-30T06:29:16.608Z,100100.63
2022-09-30T06:31:44.402Z,100103.94
2022-09-30T06:34:12.018Z,100099.34
2022-09-30T06:36:41.684Z,100088.94
2022-09-30T06:39:13.686Z,100085.50
2022-09-30T06:41:43.971Z,100081.25
2022-09-30T06:44:13.086Z,100080.25
2022-09-30T06:46:52.366Z,100070.03
2022-09-30T06:49:22.814Z,100071.25
2022-09-30T06:51:51.638Z,100058.38
2022-09-30T06:54:32.457Z,100062.50
2022-09-30T06:57:00.509Z,100058.00
2022-09-30T06:59:29.806Z,100059.03
2022-09-30T07:01:57.429Z,100059.47
2022-09-30T07:04:25.177Z,100057.00
2022-09-30T07:06:55.111Z,100055.78
2022-09-30T07:09:23.061Z,100061.09
2022-09-30T07:11:51.583Z,100075.03
2022-09-30T07:14:19.276Z,100077.69
2022-09-30T07:16:48.522Z,100073.78
2022-09-30T07:19:22.941Z,100075.56
2022-09-30T07:21:51.324Z,100078.22
2022-09-30T07:25:20.805Z,100080.53
2022-09-30T07:27:48.506Z,100083.38
2022-09-30T07:30:25.815Z,100078.84
2022-09-30T07:32:55.986Z,100088.25
2022-09-30T07:35:23.628Z,100087.66
2022-09-30T07:37:51.549Z,100091.50
2022-09-30T07:40:19.517Z,100110.53
2022-09-30T07:42:47.201Z,100110.31
2022-09-30T07:45:15.858Z,100114.00
2022-09-30T07:47:44.061Z,100113.91
2022-09-30T07:50:15.562Z,100110.44
2022-09-30T07:52:43.349Z,100106.16
2022-09-30T07:55:11.721Z,100109.44
2022-09-30T07:57:39.537Z,100108.44
2022-09-30T08:00:37.276Z,100111.69
2022-09-30T08:02:55.883Z,100102.69
2022-09-30T08:05:25.036Z,100102.50
2022-09-30T08:07:53.578Z,100111.44
2022-09-30T08:12:49.715Z,100111.34
2022-09-30T08:15:17.698Z,100111.78
2022-09-30T08:17:45.392Z,100116.13
2022-09-30T08:20:16.578Z,100116.09
2022-09-30T08:22:48.320Z,100110.66
2022-09-30T08:25:15.968Z,100117.50
2022-09-30T08:27:43.481Z,100123.75
2022-09-30T08:30:12.893Z,100120.03
2022-09-30T08:32:40.646Z,100124.50
2022-09-30T08:35:09.226Z,100131.34
2022-09-30T08:37:37.740Z,100131.34
2022-09-30T08:40:08.069Z,100133.66
2022-09-30T08:42:51.812Z,100132.28
2022-09-30T08:45:31.436Z,100120.66
2022-09-30T08:48:06.632Z,100132.53
2022-09-30T08:50:38.116Z,100124.53
2022-09-30T08:53:10.301Z,100139.28
2022-09-30T08:55:42.644Z,100133.50
2022-09-30T08:58:20.294Z,100125.34
2022-09-30T09:00:50.379Z,100129.69
2022-09-30T09:03:20.373Z,100128.69
2022-09-30T09:05:52.751Z,100131.91
2022-09-30T09:08:27.355Z,100135.09
2022-09-30T09:11:02.091Z,100134.56
2022-09-30T09:13:44.214Z,100131.72
2022-09-30T09:16:17.703Z,100139.13
2022-09-30T09:18:53.774Z,100142.25
2022-09-30T09:21:23.754Z,100136.00
2022-09-30T09:23:53.231Z,100140.53
2022-09-30T09:26:22.564Z,100144.41
2022-09-30T09:29:00.474Z,100139.53
2022-09-30T09:31:28.296Z,100138.31
2022-09-30T09:33:57.855Z,100134.13
2022-09-30T09:36:34.641Z,100149.06
2022-09-30T09:39:17.940Z,100141.59
2022-09-30T09:41:53.597Z,100142.50
2022-09-30T09:44:27.620Z,100146.31
2022-09-30T09:47:05.102Z,100130.88
2022-09-30T09:49:35.115Z,100144.81
2022-09-30T09:52:23.945Z,100147.19
2022-09-30T09:54:56.739Z,100145.47
2022-09-30T09:57:32.318Z,100144.25
2022-09-30T10:00:22.407Z,100146.81
2022-09-30T10:03:06.426Z,100144.25
2022-09-30T10:05:39.552Z,100144.06
2022-09-30T10:08:12.930Z,100146.28
2022-09-30T10:10:45.701Z,100154.63
2022-09-30T10:13:32.119Z,100149.91
2022-09-30T10:16:01.236Z,100140.56
2022-09-30T10:18:30.784Z,100141.09
2022-09-30T10:21:00.146Z,100151.03
2022-09-30T10:23:31.027Z,100151.19
2022-09-30T10:26:02.078Z,100152.34
2022-09-30T10:28:33.256Z,100134.00
2022-09-30T10:31:04.780Z,100130.31
2022-09-30T10:33:36.796Z,100136.91
2022-09-30T10:36:08.703Z,100134.81
2022-09-30T10:38:37.462Z,100131.94
2022-09-30T10:41:06.772Z,100121.63
2022-09-30T10:43:40.833Z,100134.97
2022-09-30T10:46:27.236Z,100137.31
2022-09-30T10:48:56.524Z,100129.72
2022-09-30T10:51:29.999Z,100136.44
2022-09-30T10:53:58.225Z,100137.88
2022-09-30T10:56:46.252Z,100132.00
2022-09-30T10:59:37.085Z,100127.84
2022-09-30T11:02:19.198Z,100134.03
2022-09-30T11:04:51.071Z,100130.59
2022-09-30T11:07:27.922Z,100129.34
2022-09-30T11:09:59.630Z,100135.03
2022-09-30T11:12:31.575Z,100148.22
2022-09-30T11:15:05.921Z,100150.50
2022-09-30T11:17:40.055Z,100145.56
2022-09-30T11:20:16.701Z,100135.59
2022-09-30T11:22:50.816Z,100165.72
2022-09-30T11:25:26.177Z,100150.69
2022-09-30T11:28:02.946Z,100139.97
2022-09-30T11:30:39.262Z,100141.13
2022-09-30T11:33:20.277Z,100136.44
2022-09-30T11:35:54.527Z,100154.00
2022-09-30T11:38:34.660Z,100147.91
2022-09-30T11:41:05.601Z,100144.94
2022-09-30T11:43:42.447Z,100138.31
2022-09-30T11:46:38.061Z,100132.31
2022-09-30T11:49:16.971Z,100132.59
2022-09-30T11:51:52.785Z,100132.38
2022-09-30T11:54:32.668Z,100131.59
2022-09-30T11:57:03.994Z,100138.69
2022-09-30T11:59:36.964Z,100132.59
2022-09-30T12:02:20.198Z,100133.72
2022-09-30T12:04:48.794Z,100132.28
2022-09-30T12:07:18.839Z,100139.13
2022-09-30T12:09:49.651Z,100137.78
2022-09-30T12:12:19.364Z,100139.38
2022-09-30T12:14:49.614Z,100124.63
2022-09-30T12:17:22.474Z,100127.72
2022-09-30T12:19:53.349Z,100108.53
2022-09-30T12:22:26.172Z,100118.63
2022-09-30T12:24:53.936Z,100115.47
2022-09-30T12:27:25.036Z,100103.97
2022-09-30T12:30:16.103Z,100110.97
2022-09-30T12:33:22.492Z,100089.84
2022-09-30T12:36:20.734Z,100093.66
2022-09-30T12:38:59.131Z,100085.78
2022-09-30T12:41:39.275Z,100098.81
2022-09-30T12:44:39.299Z,100081.44
2022-09-30T12:47:16.699Z,100087.47
2022-09-30T12:49:44.700Z,100088.00
2022-09-30T12:52:17.445Z,100085.81
2022-09-30T12:54:51.425Z,100076.00
2022-09-30T12:57:22.073Z,100086.13
2022-09-30T12:59:53.609Z,100082.81
2022-09-30T13:02:31.724Z,100082.00
2022-09-30T13:05:33.141Z,100073.91
2022-09-30T13:08:18.640Z,100077.09
2022-09-30T13:10:58.020Z,100076.34
2022-09-30T13:13:27.777Z,100061.41
2022-09-30T13:16:03.132Z,100077.19
2022-09-30T13:19:02.781Z,100057.38
2022-09-30T13:21:32.183Z,100073.53
2022-09-30T13:24:02.186Z,100054.19
2022-09-30T13:26:49.688Z,100059.13
2022-09-30T13:29:38.242Z,100075.19
2022-09-30T13:32:10.606Z,100066.84
2022-09-30T13:34:56.571Z,100067.41
2022-09-30T13:37:39.694Z,100087.44
2022-09-30T13:40:37.566Z,100077.91
2022-09-30T13:43:15.402Z,100050.19
2022-09-30T13:45:44.774Z,100059.34
2022-09-30T13:48:15.844Z,100059.75
2022-09-30T13:50:47.746Z,100046.59
2022-09-30T13:53:21.170Z,100050.84
2022-09-30T13:55:53.864Z,100064.22
2022-09-30T13:58:57.378Z,100079.81
2022-09-30T14:01:35.725Z,100042.59
2022-09-30T14:04:21.368Z,100037.69
2022-09-30T14:07:00.515Z,100053.47
2022-09-30T14:09:41.908Z,100055.84
2022-09-30T14:12:42.853Z,100054.59
2022-09-30T14:15:32.719Z,100041.19
2022-09-30T14:18:22.341Z,100044.06
2022-09-30T14:21:02.075Z,100032.38
2022-09-30T14:23:30.454Z,100042.81
2022-09-30T14:26:01.473Z,100035.28
2022-09-30T14:28:35.925Z,100051.09
2022-09-30T14:31:10.270Z,100039.69
2022-09-30T14:33:39.678Z,100029.66
2022-09-30T14:36:14.274Z,100021.81
2022-09-30T14:38:44.834Z,100039.69
2022-09-30T14:41:18.685Z,100040.59
2022-09-30T14:43:50.147Z,100038.69
2022-09-30T14:46:26.730Z,100025.09
2022-09-30T14:48:56.011Z,100038.22
2022-09-30T14:51:25.921Z,100025.44
2022-09-30T14:53:56.178Z,100038.66
2022-09-30T14:56:31.050Z,100022.66
2022-09-30T14:59:05.115Z,100030.13
2022-09-30T15:01:35.558Z,100006.03
2022-09-30T15:04:09.002Z,100043.44
2022-09-30T15:06:38.409Z,100018.00
2022-09-30T15:09:08.944Z,100042.75
2022-09-30T15:11:39.768Z,100031.97
2022-09-30T15:14:14.094Z,100032.75
2022-09-30T15:16:47.605Z,100013.75
2022-09-30T15:19:19.891Z,100021.63
2022-09-30T15:21:49.266Z,100005.06
2022-09-30T15:24:17.596Z,100006.63
2022-09-30T15:26:47.174Z,99994.19
2022-09-30T15:29:19.488Z,100002.25
2022-09-30T15:31:48.959Z,99999.38
2022-09-30T15:34:20.565Z,100009.63
2022-09-30T15:37:01.487Z,100020.06
2022-09-30T15:39:51.574Z,100013.97
2022-09-30T15:42:30.818Z,100018.66
2022-09-30T15:44:59.950Z,100024.63
2022-09-30T15:47:28.156Z,100015.69
2022-09-30T15:49:56.884Z,100009.97
2022-09-30T15:52:30.522Z,100011.16
2022-09-30T15:54:59.058Z,100013.81
2022-09-30T15:57:54.084Z,100002.78
2022-09-30T16:00:35.665Z,99999.06
2022-09-30T16:03:21.365Z,99991.59
2022-09-30T16:05:53.905Z,99994.28
2022-09-30T16:08:24.641Z,100007.25
2022-09-30T16:10:53.417Z,100013.31
2022-09-30T16:13:25.505Z,100016.97
2022-09-30T16:15:59.020Z,100006.59
2022-09-30T16:18:32.673Z,100016.66
2022-09-30T16:21:04.184Z,100006.00
2022-09-30T16:23:36.692Z,99993.72
2022-09-30T16:26:20.672Z,100000.94
2022-09-30T16:28:48.954Z,100004.88
2022-09-30T16:31:18.449Z,100009.59
2022-09-30T16:33:47.256Z,100002.94
2022-09-30T16:36:15.174Z,100007.09
2022-09-30T16:38:43.413Z,100017.47
2022-09-30T16:41:12.791Z,100011.88
2022-09-30T16:43:41.235Z,100012.22
2022-09-30T16:46:10.734Z,100018.56
2022-09-30T16:48:40.728Z,100001.50
2022-09-30T16:51:12.606Z,100009.91
2022-09-30T16:53:41.702Z,100004.69
2022-09-30T16:56:15.635Z,100004.34
2022-09-30T16:58:44.158Z,99996.19
2022-09-30T17:01:17.992Z,100014.53
2022-09-30T17:03:47.757Z,99997.66
2022-09-30T17:06:15.662Z,100007.00
2022-09-30T17:08:43.293Z,100014.41
2022-09-30T17:11:11.133Z,100005.22
2022-09-30T17:13:39.052Z,100010.38
2022-09-30T17:16:07.068Z,99999.19
2022-09-30T17:18:34.677Z,100004.19
2022-09-30T17:21:04.226Z,100000.94
2022-09-30T17:23:32.255Z,100001.88
2022-09-30T17:25:59.792Z,100000.44
2022-09-30T17:28:27.504Z,99993.09
2022-09-30T17:30:55.074Z,99998.59
2022-09-30T17:33:22.866Z,100003.66
2022-09-30T17:35:59.481Z,99994.41
2022-09-30T17:38:28.357Z,100000.88
2022-09-30T17:41:14.586Z,99999.47
2022-09-30T17:43:42.115Z,100007.56
2022-09-30T17:46:10.613Z,100006.91
2022-09-30T17:48:39.359Z,100003.16
2022-09-30T17:51:07.957Z,100004.97
2022-09-30T17:53:38.232Z,99990.94
2022-09-30T17:56:09.407Z,99992.31
2022-09-30T17:58:37.556Z,99984.09
2022-09-30T18:01:08.002Z,99975.03
2022-09-30T18:03:36.046Z,99978.63
2022-09-30T18:06:04.404Z,99972.78
2022-09-30T18:08:31.957Z,99973.25
2022-09-30T18:11:05.304Z,99984.69
2022-09-30T18:13:33.232Z,99979.84
2022-09-30T18:16:06.181Z,99989.09
2022-09-30T18:18:35.146Z,99975.50
2022-09-30T18:21:03.129Z,99972.69
2022-09-30T18:23:35.430Z,99977.03
2022-09-30T18:26:04.459Z,99976.69
2022-09-30T18:28:32.463Z,99976.34
2022-09-30T18:31:05.735Z,99977.59
2022-09-30T18:33:33.324Z,99973.16
2022-09-30T18:36:01.833Z,99979.28
2022-09-30T18:38:30.468Z,99974.78
2022-09-30T18:40:58.843Z,99973.19
2022-09-30T18:43:32.894Z,99968.69
2022-09-30T18:46:02.046Z,99977.19
2022-09-30T18:48:38.965Z,99982.00
2022-09-30T18:51:07.440Z,99977.84
2022-09-30T18:53:35.445Z,99983.59
2022-09-30T18:56:04.358Z,99977.31
2022-09-30T18:58:38.157Z,99975.56
2022-09-30T19:01:06.071Z,99977.31
2022-09-30T19:03:34.212Z,99972.03
2022-09-30T19:06:08.022Z,99971.00
2022-09-30T19:08:35.874Z,99965.97
2022-09-30T19:11:11.991Z,99967.03
2022-09-30T19:13:43.968Z,99967.06
2022-09-30T19:16:12.250Z,99950.56
2022-09-30T19:18:40.483Z,99956.72
2022-09-30T19:21:10.091Z,99951.13
2022-09-30T19:23:38.182Z,99947.44
2022-09-30T19:26:08.388Z,99950.19
2022-09-30T19:28:37.864Z,99942.44
2022-09-30T19:31:11.843Z,99929.84
2022-09-30T19:33:51.679Z,99932.91
2022-09-30T19:36:23.269Z,99929.00
2022-09-30T19:39:00.979Z,99926.00
2022-09-30T19:41:34.434Z,99929.03
2022-09-30T19:44:03.979Z,99923.09
2022-09-30T19:46:34.065Z,99920.28
2022-09-30T19:49:02.899Z,99919.38
2022-09-30T19:51:32.851Z,99909.34
2022-09-30T19:54:06.648Z,99911.81
2022-09-30T19:56:35.678Z,99926.00
2022-09-30T19:59:03.911Z,99915.06
2022-09-30T20:01:36.013Z,99911.94
2022-09-30T20:04:05.425Z,99907.25
2022-09-30T20:06:34.646Z,99907.56
2022-09-30T20:09:12.443Z,99912.47
2022-09-30T20:11:40.806Z,99909.25
2022-09-30T20:14:27.557Z,99907.78
2022-09-30T20:16:56.772Z,99904.19
2022-09-30T20:19:25.267Z,99898.47
2022-09-30T20:21:55.030Z,99895.16
2022-09-30T20:24:25.643Z,99890.81
2022-09-30T20:26:53.641Z,99889.47
2022-09-30T20:29:21.390Z,99885.66
2022-09-30T20:31:50.511Z,99880.59
2022-09-30T20:34:20.215Z,99880.88
2022-09-30T20:36:48.492Z,99884.34
2022-09-30T20:39:16.228Z,99884.75
2022-09-30T20:41:44.492Z,99880.75
2022-09-30T20:44:13.791Z,99877.63
2022-09-30T20:46:43.244Z,99880.19
2022-09-30T20:49:11.137Z,99874.50
2022-09-30T20:51:40.395Z,99868.84
2022-09-30T20:54:08.395Z,99874.03
2022-09-30T20:57:02.727Z,99862.97
2022-09-30T20:59:24.724Z,99862.28
2022-09-30T21:01:52.483Z,99867.28
2022-09-30T21:04:21.412Z,99866.31
2022-09-30T21:06:50.392Z,99866.50
2022-09-30T21:09:18.093Z,99864.78
2022-09-30T21:11:45.869Z,99856.22
2022-09-30T21:14:14.226Z,99858.22
2022-09-30T21:16:42.787Z,99854.75
2022-09-30T21:19:11.386Z,99846.03
2022-09-30T21:21:39.265Z,99849.66
2022-09-30T21:24:08.341Z,99846.84
2022-09-30T21:26:36.352Z,99845.91
2022-09-30T21:29:04.171Z,99840.53
2022-09-30T21:31:33.617Z,99840.31
2022-09-30T21:34:02.083Z,99837.63
2022-09-30T21:36:32.137Z,99835.66
2022-09-30T21:39:02.755Z,99828.22
2022-09-30T21:41:34.450Z,99826.34
2022-09-30T21:44:04.356Z,99828.22
2022-09-30T21:46:32.213Z,99813.50
2022-09-30T21:49:09.895Z,99820.75
2022-09-30T21:51:37.571Z,99809.63
2022-09-30T21:54:06.259Z,99806.63
2022-09-30T21:56:35.584Z,99808.59
2022-09-30T21:59:03.778Z,99810.72
2022-09-30T22:01:31.824Z,99827.38
2022-09-30T22:04:00.284Z,99808.34
2022-09-30T22:06:28.666Z,99808.34
2022-09-30T22:08:56.341Z,99799.47
2022-09-30T22:11:25.153Z,99797.13
2022-09-30T22:13:56.763Z,99802.16
2022-09-30T22:16:27.445Z,99801.56
2022-09-30T22:18:56.242Z,99798.03
2022-09-30T22:21:24.498Z,99798.19
2022-09-30T22:23:52.197Z,99799.94
2022-09-30T22:26:22.943Z,99791.84
2022-09-30T22:28:56.567Z,99780.28
2022-09-30T22:31:26.118Z,99783.09
2022-09-30T22:34:13.619Z,99783.19
2022-09-30T22:36:59.182Z,99777.13
2022-09-30T22:39:27.550Z,99781.91
2022-09-30T22:41:56.676Z,99772.56
2022-09-30T22:44:26.805Z,99766.53
2022-09-30T22:46:55.027Z,99760.31
2022-09-30T22:49:24.713Z,99756.06
2022-09-30T22:51:52.329Z,99761.81
2022-09-30T22:54:20.173Z,99753.41
2022-09-30T22:56:50.633Z,99749.00
2022-09-30T22:59:18.488Z,99745.91
2022-09-30T23:01:50.664Z,99745.97
2022-09-30T23:04:19.169Z,99733.97
2022-09-30T23:06:49.227Z,99742.66
2022-09-30T23:09:17.088Z,99736.91
2022-09-30T23:11:46.044Z,99723.34
2022-09-30T23:14:13.846Z,99718.69
2022-09-30T23:16:42.988Z,99713.97
2022-09-30T23:19:12.490Z,99712.84
2022-09-30T23:21:40.738Z,99699.31
2022-09-30T23:24:08.866Z,99705.50
2022-09-30T23:26:37.339Z,99706.63
2022-09-30T23:29:06.860Z,99698.47
2022-09-30T23:31:35.200Z,99689.06
2022-09-30T23:34:05.100Z,99687.09
2022-09-30T23:36:38.783Z,99694.91
2022-09-30T23:39:09.363Z,99679.97
2022-09-30T23:41:37.528Z,99669.94
2022-09-30T23:44:06.166Z,99668.91
2022-09-30T23:46:34.049Z,99667.25
2022-09-30T23:49:02.597Z,99656.69
2022-09-30T23:51:33.759Z,99662.63
2022-09-30T23:54:03.712Z,99652.63
2022-09-30T23:56:32.100Z,99649.19
2022-09-30T23:58:59.938Z,99647.50
